createdAt,value
2022-08-24T00:02:09.687Z,18.40
2022-08-24T00:04:38.843Z,18.03
2022-08-24T00:07:06.180Z,17.99
2022-08-24T00:09:43.418Z,18.15
2022-08-24T00:12:16.627Z,18.35
2022-08-24T00:14:44.246Z,18.03
2022-08-24T00:17:11.581Z,18.03
2022-08-24T00:19:39.544Z,18.14
2022-08-24T00:22:06.712Z,18.26
2022-08-24T00:24:38.043Z,18.29
2022-08-24T00:27:06.914Z,18.29
2022-08-24T00:29:34.362Z,18.32
2022-08-24T00:32:01.118Z,18.27
2022-08-24T00:34:58.448Z,18.04
2022-08-24T00:37:31.030Z,18.25
2022-08-24T00:40:00.193Z,18.32
2022-08-24T00:42:29.744Z,17.86
2022-08-24T00:44:56.453Z,17.83
2022-08-24T00:47:33.475Z,18.00
2022-08-24T00:50:07.332Z,18.00
2022-08-24T00:52:48.514Z,17.99
2022-08-24T00:55:43.646Z,18.19
2022-08-24T00:58:17.222Z,18.47
2022-08-24T01:00:51.980Z,18.37
2022-08-24T01:03:18.970Z,18.34
2022-08-24T01:05:47.032Z,18.05
2022-08-24T01:08:15.806Z,17.98
2022-08-24T01:11:13.023Z,18.43
2022-08-24T01:13:43.854Z,18.33
2022-08-24T01:16:13.201Z,18.36
2022-08-24T01:18:52.557Z,18.33
2022-08-24T01:21:28.941Z,18.39
2022-08-24T01:24:00.087Z,18.27
2022-08-24T01:26:48.956Z,18.23
2022-08-24T01:29:29.096Z,18.12
2022-08-24T01:31:58.526Z,18.19
2022-08-24T01:34:25.723Z,17.98
2022-08-24T01:36:56.280Z,17.99
2022-08-24T01:39:28.971Z,18.01
2022-08-24T01:41:56.285Z,18.06
2022-08-24T01:44:25.180Z,18.08
2022-08-24T01:46:56.219Z,18.03
2022-08-24T01:49:29.185Z,18.16
2022-08-24T01:51:56.989Z,18.18
2022-08-24T01:54:24.481Z,17.99
2022-08-24T01:56:52.095Z,17.98
2022-08-24T01:59:20.310Z,18.03
2022-08-24T02:01:52.847Z,17.89
2022-08-24T02:04:20.264Z,18.00
2022-08-24T02:06:47.002Z,18.07
2022-08-24T02:09:13.669Z,18.06
2022-08-24T02:11:41.833Z,17.97
2022-08-24T02:14:08.993Z,17.93
2022-08-24T02:16:36.922Z,17.86
2022-08-24T02:19:03.618Z,17.75
2022-08-24T02:21:30.625Z,17.67
2022-08-24T02:23:57.460Z,17.75
2022-08-24T02:26:25.808Z,17.75
2022-08-24T02:28:57.170Z,17.70
2022-08-24T02:31:26.257Z,17.79
2022-08-24T02:33:53.018Z,17.61
2022-08-24T02:36:25.285Z,17.68
2022-08-24T02:38:54.879Z,17.53
2022-08-24T02:41:24.782Z,17.22
2022-08-24T02:43:52.511Z,17.19
2022-08-24T02:46:25.797Z,17.52
2022-08-24T02:48:57.554Z,17.36
2022-08-24T02:51:44.285Z,17.51
2022-08-24T02:54:13.164Z,17.58
2022-08-24T02:56:39.945Z,17.71
2022-08-24T02:59:07.382Z,17.68
2022-08-24T03:01:34.450Z,17.70
2022-08-24T03:04:01.296Z,17.64
2022-08-24T03:06:28.056Z,17.70
2022-08-24T03:08:56.638Z,17.45
2022-08-24T03:11:27.956Z,17.36
2022-08-24T03:13:59.019Z,17.38
2022-08-24T03:16:27.373Z,17.13
2022-08-24T03:18:54.237Z,17.02
2022-08-24T03:21:24.362Z,17.03
2022-08-24T03:23:51.100Z,17.03
2022-08-24T03:26:17.850Z,16.92
2022-08-24T03:28:45.233Z,17.02
2022-08-24T03:31:12.681Z,16.87
2022-08-24T03:33:39.660Z,16.66
2022-08-24T03:36:09.071Z,16.77
2022-08-24T03:38:37.894Z,17.07
2022-08-24T03:41:04.834Z,17.02
2022-08-24T03:43:46.793Z,17.01
2022-08-24T03:46:16.570Z,17.22
2022-08-24T03:48:44.501Z,17.50
2022-08-24T03:51:13.413Z,17.57
2022-08-24T03:53:42.900Z,17.24
2022-08-24T03:56:11.443Z,17.68
2022-08-24T03:58:41.654Z,17.72
2022-08-24T04:01:09.140Z,17.79
2022-08-24T04:03:37.388Z,17.61
2022-08-24T04:06:05.566Z,17.74
2022-08-24T04:08:33.143Z,17.81
2022-08-24T04:11:00.071Z,17.75
2022-08-24T04:13:26.785Z,17.56
2022-08-24T04:15:53.798Z,17.56
2022-08-24T04:18:20.468Z,17.61
2022-08-24T04:20:47.255Z,17.68
2022-08-24T04:23:15.334Z,17.75
2022-08-24T04:25:45.028Z,17.51
2022-08-24T04:28:13.633Z,17.45
2022-08-24T04:30:46.442Z,17.53
2022-08-24T04:33:14.440Z,17.38
2022-08-24T04:35:45.816Z,17.31
2022-08-24T04:38:12.733Z,17.14
2022-08-24T04:40:40.544Z,17.27
2022-08-24T04:43:08.743Z,17.15
2022-08-24T04:45:40.606Z,17.06
2022-08-24T04:48:07.984Z,16.70
2022-08-24T04:50:36.088Z,16.63
2022-08-24T04:53:04.554Z,16.84
2022-08-24T04:55:32.851Z,17.08
2022-08-24T04:57:59.554Z,17.08
2022-08-24T05:00:26.799Z,16.91
2022-08-24T05:02:53.538Z,17.01
2022-08-24T05:05:20.267Z,17.01
2022-08-24T05:07:46.978Z,16.98
2022-08-24T05:10:14.186Z,17.22
2022-08-24T05:12:41.091Z,17.11
2022-08-24T05:15:08.257Z,16.98
2022-08-24T05:17:34.959Z,17.14
2022-08-24T05:20:01.726Z,17.16
2022-08-24T05:22:28.443Z,17.09
2022-08-24T05:24:55.128Z,16.82
2022-08-24T05:27:22.709Z,17.05
2022-08-24T05:29:55.809Z,17.03
2022-08-24T05:32:22.872Z,17.13
2022-08-24T05:34:49.606Z,17.13
2022-08-24T05:37:16.310Z,17.20
2022-08-24T05:39:43.013Z,17.30
2022-08-24T05:42:09.823Z,17.17
2022-08-24T05:44:36.478Z,17.09
2022-08-24T05:47:03.495Z,17.38
2022-08-24T05:49:31.087Z,17.54
2022-08-24T05:51:59.082Z,17.49
2022-08-24T05:54:27.133Z,17.42
2022-08-24T05:56:54.921Z,17.27
2022-08-24T05:59:22.757Z,17.27
2022-08-24T06:01:49.896Z,17.26
2022-08-24T06:04:16.625Z,17.34
2022-08-24T06:06:43.285Z,17.55
2022-08-24T06:09:12.921Z,17.56
2022-08-24T06:11:41.051Z,17.80
2022-08-24T06:14:12.080Z,17.90
2022-08-24T06:16:41.834Z,17.90
2022-08-24T06:19:10.369Z,17.96
2022-08-24T06:21:38.120Z,17.88
2022-08-24T06:24:06.231Z,17.97
2022-08-24T06:26:51.543Z,17.96
2022-08-24T06:29:19.807Z,18.11
2022-08-24T06:31:50.860Z,18.02
2022-08-24T06:34:23.273Z,18.12
2022-08-24T06:36:50.326Z,18.02
2022-08-24T06:39:17.519Z,17.97
2022-08-24T06:41:45.124Z,17.91
2022-08-24T06:44:12.479Z,17.98
2022-08-24T06:46:39.325Z,18.12
2022-08-24T06:49:06.133Z,18.14
2022-08-24T06:51:32.974Z,17.94
2022-08-24T06:54:00.505Z,18.12
2022-08-24T06:56:27.447Z,18.00
2022-08-24T06:58:54.359Z,18.06
2022-08-24T07:01:24.510Z,17.89
2022-08-24T07:03:51.742Z,17.91
2022-08-24T07:06:19.161Z,17.85
2022-08-24T07:08:46.298Z,17.53
2022-08-24T07:11:18.207Z,17.53
2022-08-24T07:13:47.487Z,17.79
2022-08-24T07:16:19.594Z,17.81
2022-08-24T07:18:49.716Z,17.71
2022-08-24T07:21:19.846Z,17.55
2022-08-24T07:23:48.557Z,17.65
2022-08-24T07:26:22.869Z,17.62
2022-08-24T07:28:59.497Z,17.64
2022-08-24T07:31:26.792Z,17.82
2022-08-24T07:33:53.498Z,17.70
2022-08-24T07:36:22.025Z,17.79
2022-08-24T07:38:52.811Z,17.83
2022-08-24T07:41:47.016Z,17.93
2022-08-24T07:44:08.808Z,18.01
2022-08-24T07:46:36.205Z,18.10
2022-08-24T07:49:11.034Z,17.99
2022-08-24T07:51:44.756Z,18.08
2022-08-24T07:54:13.749Z,17.79
2022-08-24T07:56:41.615Z,17.97
2022-08-24T07:59:12.850Z,17.89
2022-08-24T08:01:40.550Z,17.96
2022-08-24T08:04:07.974Z,17.86
2022-08-24T08:06:35.213Z,17.89
2022-08-24T08:09:04.783Z,18.00
2022-08-24T08:11:31.975Z,18.02
2022-08-24T08:13:58.701Z,17.93
2022-08-24T08:16:26.408Z,17.94
2022-08-24T08:19:09.403Z,17.98
2022-08-24T08:22:01.087Z,17.95
2022-08-24T08:24:27.981Z,18.07
2022-08-24T08:26:54.873Z,18.10
2022-08-24T08:29:21.602Z,17.92
2022-08-24T08:31:48.397Z,17.70
2022-08-24T08:34:15.617Z,17.58
2022-08-24T08:36:42.941Z,17.70
2022-08-24T08:39:13.469Z,17.46
2022-08-24T08:41:52.242Z,17.40
2022-08-24T08:44:45.561Z,17.57
2022-08-24T08:47:30.705Z,17.45
2022-08-24T08:50:15.649Z,17.75
2022-08-24T08:53:10.099Z,17.76
2022-08-24T08:55:45.528Z,17.86
2022-08-24T08:58:20.651Z,17.84
2022-08-24T09:01:04.758Z,17.58
2022-08-24T09:03:44.669Z,17.81
2022-08-24T09:06:22.756Z,17.95
2022-08-24T09:08:57.626Z,18.14
2022-08-24T09:14:48.243Z,18.08
2022-08-24T09:17:33.530Z,18.10
2022-08-24T09:20:12.231Z,17.98
2022-08-24T09:22:43.656Z,17.95
2022-08-24T09:25:26.671Z,18.11
2022-08-24T09:28:14.666Z,18.19
2022-08-24T09:30:47.542Z,18.20
2022-08-24T09:33:14.204Z,18.17
2022-08-24T09:36:08.174Z,18.32
2022-08-24T09:38:56.539Z,18.32
2022-08-24T09:41:53.723Z,17.82
2022-08-24T09:44:39.439Z,17.89
2022-08-24T09:47:09.449Z,17.89
2022-08-24T09:50:30.045Z,17.53
2022-08-24T09:53:34.121Z,18.07
2022-08-24T09:56:05.130Z,17.93
2022-08-24T09:59:07.137Z,18.18
2022-08-24T10:01:50.878Z,18.24
2022-08-24T10:04:33.021Z,18.30
2022-08-24T10:07:16.121Z,18.36
2022-08-24T10:09:54.157Z,18.11
2022-08-24T10:12:23.973Z,18.11
2022-08-24T10:14:54.611Z,18.04
2022-08-24T10:18:00.405Z,18.11
2022-08-24T10:21:02.426Z,18.21
2022-08-24T10:23:49.907Z,18.18
2022-08-24T10:26:38.598Z,18.26
2022-08-24T10:29:31.482Z,18.27
2022-08-24T10:32:19.555Z,18.25
2022-08-24T10:35:13.798Z,18.33
2022-08-24T10:38:30.279Z,18.10
2022-08-24T10:41:05.783Z,18.12
2022-08-24T10:43:43.057Z,18.39
2022-08-24T10:46:24.906Z,18.46
2022-08-24T10:49:17.698Z,18.51
2022-08-24T10:51:47.823Z,18.49
2022-08-24T10:54:15.155Z,18.30
2022-08-24T10:56:59.087Z,18.32
2022-08-24T10:59:37.884Z,18.37
2022-08-24T11:02:12.932Z,18.38
2022-08-24T11:04:40.291Z,18.24
2022-08-24T11:07:09.953Z,18.27
2022-08-24T11:09:56.402Z,18.26
2022-08-24T11:12:41.586Z,18.43
2022-08-24T11:15:20.898Z,18.38
2022-08-24T11:18:00.381Z,18.45
2022-08-24T11:20:33.832Z,18.29
2022-08-24T11:23:06.151Z,18.29
2022-08-24T11:25:36.820Z,18.51
2022-08-24T11:28:26.729Z,18.14
2022-08-24T11:30:53.510Z,18.35
2022-08-24T11:33:49.598Z,18.47
2022-08-24T11:36:25.967Z,18.34
2022-08-24T11:39:29.337Z,18.37
2022-08-24T11:41:59.325Z,18.28
2022-08-24T11:44:35.955Z,18.38
2022-08-24T11:47:14.848Z,18.24
2022-08-24T11:50:07.917Z,18.19
2022-08-24T11:52:52.861Z,18.13
2022-08-24T11:55:30.658Z,18.13
2022-08-24T11:58:38.544Z,18.22
2022-08-24T12:01:08.687Z,18.55
2022-08-24T12:04:17.278Z,18.43
2022-08-24T12:06:59.513Z,18.11
2022-08-24T12:09:51.873Z,18.32
2022-08-24T12:12:52.843Z,18.09
2022-08-24T12:15:52.106Z,18.10
2022-08-24T12:18:56.223Z,18.74
2022-08-24T12:21:25.707Z,18.84
2022-08-24T12:24:05.807Z,19.05
2022-08-24T12:26:44.423Z,19.23
2022-08-24T12:29:31.955Z,19.37
2022-08-24T12:32:05.493Z,19.54
2022-08-24T12:34:35.166Z,19.62
2022-08-24T12:37:16.484Z,19.84
2022-08-24T12:40:22.993Z,20.29
2022-08-24T12:42:55.949Z,20.14
2022-08-24T12:45:24.928Z,20.47
2022-08-24T12:47:58.516Z,20.70
2022-08-24T12:50:28.275Z,20.95
2022-08-24T12:53:13.402Z,20.89
2022-08-24T12:56:05.459Z,21.52
2022-08-24T12:58:35.941Z,21.33
2022-08-24T13:01:11.869Z,21.71
2022-08-24T13:03:42.466Z,21.73
2022-08-24T13:06:20.191Z,21.46
2022-08-24T13:08:50.823Z,20.97
2022-08-24T13:11:24.175Z,21.35
2022-08-24T13:13:57.415Z,21.54
2022-08-24T13:16:48.331Z,21.73
2022-08-24T13:19:28.420Z,21.56
2022-08-24T13:22:18.429Z,21.55
2022-08-24T13:24:47.148Z,20.82
2022-08-24T13:27:13.792Z,21.05
2022-08-24T13:29:50.047Z,21.38
2022-08-24T13:32:31.308Z,21.45
2022-08-24T13:34:59.231Z,21.86
2022-08-24T13:37:28.294Z,21.98
2022-08-24T13:40:08.490Z,21.55
2022-08-24T13:43:15.028Z,21.84
2022-08-24T13:45:46.585Z,21.37
2022-08-24T13:48:41.316Z,21.32
2022-08-24T13:51:30.007Z,21.35
2022-08-24T13:54:15.641Z,21.03
2022-08-24T13:57:14.110Z,21.87
2022-08-24T13:59:42.701Z,22.05
2022-08-24T14:02:16.047Z,21.94
2022-08-24T14:04:55.304Z,21.74
2022-08-24T14:07:28.127Z,21.55
2022-08-24T14:10:18.175Z,21.63
2022-08-24T14:12:56.134Z,21.14
2022-08-24T14:15:35.897Z,21.70
2022-08-24T14:18:14.848Z,21.72
2022-08-24T14:21:05.801Z,21.21
2022-08-24T14:23:52.102Z,21.94
2022-08-24T14:26:34.391Z,22.28
2022-08-24T14:29:19.512Z,22.31
2022-08-24T14:32:08.514Z,22.17
2022-08-24T14:34:40.949Z,22.27
2022-08-24T14:37:13.732Z,22.08
2022-08-24T14:40:17.598Z,21.83
2022-08-24T14:43:00.286Z,21.68
2022-08-24T14:45:42.999Z,22.24
2022-08-24T14:48:46.466Z,22.56
2022-08-24T14:51:31.810Z,22.36
2022-08-24T14:54:15.955Z,22.60
2022-08-24T14:57:13.289Z,22.28
2022-08-24T14:59:58.885Z,22.32
2022-08-24T15:02:53.512Z,22.36
2022-08-24T15:05:32.374Z,22.24
2022-08-24T15:08:06.169Z,22.30
2022-08-24T15:10:46.582Z,22.08
2022-08-24T15:13:29.250Z,22.04
2022-08-24T15:16:03.826Z,21.92
2022-08-24T15:19:00.595Z,21.87
2022-08-24T15:21:48.657Z,21.91
2022-08-24T15:24:42.481Z,22.04
2022-08-24T15:27:18.898Z,22.25
2022-08-24T15:29:50.744Z,21.81
2022-08-24T15:32:17.682Z,22.19
2022-08-24T15:34:53.316Z,21.94
2022-08-24T15:37:28.220Z,22.35
2022-08-24T15:39:55.106Z,22.17
2022-08-24T15:42:22.151Z,22.31
2022-08-24T15:44:51.030Z,21.92
2022-08-24T15:47:31.346Z,21.93
2022-08-24T15:50:22.590Z,22.36
2022-08-24T15:53:01.096Z,22.31
2022-08-24T15:55:32.626Z,22.53
2022-08-24T15:58:22.427Z,22.43
2022-08-24T16:01:08.100Z,21.71
2022-08-24T16:03:51.413Z,21.84
2022-08-24T16:06:23.146Z,21.59
2022-08-24T16:09:05.194Z,21.40
2022-08-24T16:11:39.974Z,21.26
2022-08-24T16:14:24.089Z,21.29
2022-08-24T16:16:54.506Z,21.43
2022-08-24T16:19:35.526Z,21.11
2022-08-24T16:22:10.756Z,21.49
2022-08-24T16:24:40.619Z,21.29
2022-08-24T16:27:16.957Z,21.23
2022-08-24T16:29:50.958Z,21.42
2022-08-24T16:32:22.862Z,21.24
2022-08-24T16:35:01.617Z,21.32
2022-08-24T16:37:28.286Z,21.00
2022-08-24T16:39:55.047Z,20.63
2022-08-24T16:42:25.672Z,21.19
2022-08-24T16:44:52.886Z,20.82
2022-08-24T16:47:20.949Z,20.56
2022-08-24T16:49:48.271Z,20.36
2022-08-24T16:52:15.817Z,20.63
2022-08-24T16:54:42.740Z,20.32
2022-08-24T16:57:16.897Z,20.37
2022-08-24T16:59:46.389Z,20.61
2022-08-24T17:02:14.211Z,20.43
2022-08-24T17:04:42.718Z,20.21
2022-08-24T17:07:15.389Z,20.08
2022-08-24T17:09:45.347Z,20.21
2022-08-24T17:12:12.390Z,19.83
2022-08-24T17:14:39.703Z,20.27
2022-08-24T17:17:09.890Z,20.18
2022-08-24T17:19:37.969Z,20.39
2022-08-24T17:22:06.073Z,20.47
2022-08-24T17:24:33.503Z,20.11
2022-08-24T17:27:01.210Z,20.24
2022-08-24T17:29:28.809Z,20.21
2022-08-24T17:31:55.718Z,20.23
2022-08-24T17:34:23.781Z,20.21
2022-08-24T17:36:53.426Z,20.48
2022-08-24T17:39:21.150Z,20.16
2022-08-24T17:41:48.011Z,20.09
2022-08-24T17:44:21.083Z,20.36
2022-08-24T17:46:51.064Z,20.29
2022-08-24T17:49:18.347Z,20.04
2022-08-24T17:51:45.809Z,20.19
2022-08-24T17:54:13.464Z,20.19
2022-08-24T17:56:41.124Z,19.95
2022-08-24T17:59:20.055Z,20.27
2022-08-24T18:01:51.258Z,20.31
2022-08-24T18:04:20.875Z,19.69
2022-08-24T18:06:49.299Z,19.81
2022-08-24T18:09:22.503Z,19.58
2022-08-24T18:11:49.260Z,19.66
2022-08-24T18:14:16.046Z,19.61
2022-08-24T18:16:42.966Z,19.40
2022-08-24T18:19:19.593Z,19.67
2022-08-24T18:21:49.688Z,19.53
2022-08-24T18:24:16.790Z,19.50
2022-08-24T18:26:47.693Z,19.44
2022-08-24T18:29:21.537Z,19.28
2022-08-24T18:31:49.665Z,19.05
2022-08-24T18:34:25.916Z,18.83
2022-08-24T18:36:52.739Z,19.14
2022-08-24T18:39:20.351Z,19.15
2022-08-24T18:41:49.215Z,18.79
2022-08-24T18:44:21.706Z,19.10
2022-08-24T18:46:49.484Z,18.97
2022-08-24T18:49:17.959Z,18.90
2022-08-24T18:51:45.618Z,18.65
2022-08-24T18:54:19.224Z,18.68
2022-08-24T18:56:46.034Z,18.88
2022-08-24T18:59:15.214Z,18.80
2022-08-24T19:02:06.227Z,18.76
2022-08-24T19:04:34.098Z,18.54
2022-08-24T19:07:01.105Z,18.60
2022-08-24T19:09:32.041Z,18.57
2022-08-24T19:12:00.663Z,18.51
2022-08-24T19:14:27.378Z,18.36
2022-08-24T19:16:54.029Z,18.55
2022-08-24T19:19:22.301Z,18.49
2022-08-24T19:21:49.490Z,18.32
2022-08-24T19:24:29.407Z,18.10
2022-08-24T19:27:01.864Z,18.25
2022-08-24T19:29:54.619Z,18.29
2022-08-24T19:32:22.686Z,18.23
2022-08-24T19:34:51.285Z,18.32
2022-08-24T19:37:18.163Z,18.39
2022-08-24T19:39:45.949Z,18.17
2022-08-24T19:42:16.191Z,18.38
2022-08-24T19:45:01.539Z,18.45
2022-08-24T19:47:28.583Z,18.38
2022-08-24T19:49:55.594Z,18.07
2022-08-24T19:52:23.051Z,18.00
2022-08-24T19:54:49.969Z,18.13
2022-08-24T19:57:34.029Z,18.22
2022-08-24T20:00:19.255Z,18.14
2022-08-24T20:02:51.356Z,18.05
2022-08-24T20:05:19.799Z,17.97
2022-08-24T20:07:47.473Z,17.79
2022-08-24T20:10:26.887Z,17.72
2022-08-24T20:12:54.273Z,17.59
2022-08-24T20:15:23.007Z,17.41
2022-08-24T20:17:50.505Z,17.39
2022-08-24T20:20:23.217Z,17.36
2022-08-24T20:22:50.567Z,17.27
2022-08-24T20:25:23.818Z,17.03
2022-08-24T20:28:02.179Z,17.29
2022-08-24T20:30:59.891Z,17.18
2022-08-24T20:33:27.753Z,17.23
2022-08-24T20:35:56.748Z,17.36
2022-08-24T20:38:23.820Z,17.42
2022-08-24T20:40:52.244Z,17.23
2022-08-24T20:43:19.769Z,17.08
2022-08-24T20:45:46.958Z,17.04
2022-08-24T20:48:14.019Z,17.11
2022-08-24T20:50:44.467Z,17.15
2022-08-24T20:53:12.236Z,17.16
2022-08-24T20:55:40.606Z,17.01
2022-08-24T20:58:08.178Z,16.85
2022-08-24T21:00:35.013Z,17.08
2022-08-24T21:03:01.760Z,17.03
2022-08-24T21:05:28.773Z,17.10
2022-08-24T21:07:57.992Z,16.96
2022-08-24T21:10:27.412Z,16.75
2022-08-24T21:12:54.897Z,16.55
2022-08-24T21:15:23.569Z,16.51
2022-08-24T21:17:50.459Z,16.62
2022-08-24T21:20:18.093Z,16.74
2022-08-24T21:22:46.285Z,16.65
2022-08-24T21:25:14.750Z,16.70
2022-08-24T21:27:44.236Z,16.75
2022-08-24T21:30:22.546Z,16.70
2022-08-24T21:33:08.208Z,16.49
2022-08-24T21:35:36.824Z,16.30
2022-08-24T21:38:04.438Z,16.52
2022-08-24T21:40:31.802Z,16.61
2022-08-24T21:42:58.797Z,16.23
2022-08-24T21:45:26.842Z,16.24
2022-08-24T21:47:54.085Z,16.38
2022-08-24T21:50:25.454Z,16.59
2022-08-24T21:52:54.116Z,16.57
2022-08-24T21:55:21.811Z,16.42
2022-08-24T21:57:49.420Z,16.26
2022-08-24T22:00:19.110Z,16.16
2022-08-24T22:02:48.234Z,16.02
2022-08-24T22:05:16.689Z,16.05
2022-08-24T22:07:44.175Z,16.33
2022-08-24T22:10:12.304Z,16.13
2022-08-24T22:12:41.882Z,16.40
2022-08-24T22:15:11.679Z,16.41
2022-08-24T22:17:39.265Z,16.51
2022-08-24T22:20:07.940Z,16.43
2022-08-24T22:22:46.091Z,16.45
2022-08-24T22:25:13.219Z,16.14
2022-08-24T22:27:44.072Z,16.38
2022-08-24T22:30:13.215Z,16.42
2022-08-24T22:32:39.945Z,16.31
2022-08-24T22:35:07.678Z,16.24
2022-08-24T22:37:34.865Z,16.28
2022-08-24T22:40:02.678Z,16.15
2022-08-24T22:42:30.621Z,16.03
2022-08-24T22:44:59.001Z,16.02
2022-08-24T22:47:27.038Z,15.71
2022-08-24T22:49:55.199Z,15.62
2022-08-24T22:52:22.155Z,15.71
2022-08-24T22:54:49.038Z,15.86
2022-08-24T22:57:17.664Z,15.83
2022-08-24T22:59:47.048Z,15.89
2022-08-24T23:02:16.170Z,15.87
2022-08-24T23:04:45.923Z,15.85
2022-08-24T23:07:13.162Z,15.77
2022-08-24T23:09:44.028Z,15.59
2022-08-24T23:12:14.845Z,15.51
2022-08-24T23:14:43.428Z,15.73
2022-08-24T23:17:10.514Z,15.53
2022-08-24T23:19:55.654Z,15.54
2022-08-24T23:22:22.349Z,15.49
2022-08-24T23:24:49.201Z,15.52
2022-08-24T23:27:17.769Z,15.58
2022-08-24T23:29:46.135Z,15.42
2022-08-24T23:32:14.175Z,15.61
2022-08-24T23:34:46.529Z,15.59
2022-08-24T23:37:14.017Z,15.53
2022-08-24T23:39:40.657Z,15.69
2022-08-24T23:42:07.710Z,15.59
2022-08-24T23:44:34.591Z,15.52
2022-08-24T23:47:02.049Z,15.83
2022-08-24T23:49:30.186Z,15.65
2022-08-24T23:51:57.536Z,15.64
2022-08-24T23:54:24.898Z,15.77
2022-08-24T23:56:54.801Z,15.75
2022-08-24T23:59:27.803Z,15.65
